createdAt,value
2022-12-15T00:02:10.219Z,-4.21
2022-12-15T00:04:55.311Z,-4.23
2022-12-15T00:07:40.441Z,-4.28
2022-12-15T00:10:25.390Z,-4.28
2022-12-15T00:13:10.343Z,-4.23
2022-12-15T00:15:55.506Z,-4.20
2022-12-15T00:18:40.588Z,-4.32
2022-12-15T00:21:25.591Z,-4.47
2022-12-15T00:24:10.663Z,-4.49
2022-12-15T00:26:55.662Z,-4.52
2022-12-15T00:29:40.905Z,-4.42
2022-12-15T00:32:25.899Z,-4.37
2022-12-15T00:35:10.679Z,-4.36
2022-12-15T00:37:55.799Z,-4.20
2022-12-15T00:40:22.204Z,-4.07
2022-12-15T00:42:49.695Z,-4.06
2022-12-15T00:45:16.374Z,-4.10
2022-12-15T00:47:42.793Z,-4.08
2022-12-15T00:50:27.758Z,-4.04
2022-12-15T00:53:12.865Z,-3.96
2022-12-15T00:55:57.966Z,-3.97
2022-12-15T00:58:43.002Z,-3.97
2022-12-15T01:01:29.124Z,-3.88
2022-12-15T01:04:14.303Z,-3.90
2022-12-15T01:06:59.442Z,-3.89
2022-12-15T01:09:44.465Z,-3.88
2022-12-15T01:12:29.420Z,-3.74
2022-12-15T01:15:14.278Z,-3.71
2022-12-15T01:17:59.244Z,-3.67
2022-12-15T01:20:25.650Z,-3.83
2022-12-15T01:22:54.123Z,-3.88
2022-12-15T01:25:23.010Z,-3.75
2022-12-15T01:27:49.742Z,-3.87
2022-12-15T01:30:19.819Z,-3.90
2022-12-15T01:32:46.646Z,-3.89
2022-12-15T01:35:13.396Z,-3.88
2022-12-15T01:37:39.967Z,-3.94
2022-12-15T01:40:27.004Z,-4.02
2022-12-15T01:42:53.530Z,-4.07
2022-12-15T01:45:29.130Z,-4.05
2022-12-15T01:48:10.578Z,-4.03
2022-12-15T01:50:43.806Z,-3.95
2022-12-15T01:53:10.903Z,-3.89
2022-12-15T01:55:39.093Z,-3.88
2022-12-15T01:58:07.392Z,-3.97
2022-12-15T02:00:34.584Z,-3.93
2022-12-15T02:03:01.625Z,-3.94
2022-12-15T02:05:30.044Z,-4.01
2022-12-15T02:07:56.543Z,-4.04
2022-12-15T02:10:29.449Z,-4.00
2022-12-15T02:13:12.975Z,-3.97
2022-12-15T02:15:51.250Z,-3.85
2022-12-15T02:18:46.366Z,-3.86
2022-12-15T02:21:23.954Z,-3.92
2022-12-15T02:23:56.310Z,-3.86
2022-12-15T02:26:56.557Z,-3.79
2022-12-15T02:29:50.613Z,-3.71
2022-12-15T02:32:21.438Z,-3.68
2022-12-15T02:35:06.257Z,-3.74
2022-12-15T02:37:35.321Z,-3.63
2022-12-15T02:40:02.744Z,-3.63
2022-12-15T02:42:30.633Z,-3.56
2022-12-15T02:45:01.333Z,-3.50
2022-12-15T02:48:10.000Z,-3.46
2022-12-15T02:50:51.711Z,-3.42
2022-12-15T02:53:37.063Z,-3.45
2022-12-15T02:56:26.410Z,-3.47
2022-12-15T02:59:12.461Z,-3.56
2022-12-15T03:01:47.212Z,-3.54
2022-12-15T03:04:16.772Z,-3.54
2022-12-15T03:06:43.201Z,-3.44
2022-12-15T03:09:09.664Z,-3.49
2022-12-15T03:11:36.871Z,-3.43
2022-12-15T03:14:03.769Z,-3.47
2022-12-15T03:16:30.266Z,-3.37
2022-12-15T03:18:57.723Z,-3.33
2022-12-15T03:21:24.106Z,-3.37
2022-12-15T03:23:50.482Z,-3.34
2022-12-15T03:26:16.862Z,-3.38
2022-12-15T03:28:43.257Z,-3.38
2022-12-15T03:31:09.659Z,-3.35
2022-12-15T03:33:36.055Z,-3.39
2022-12-15T03:36:02.505Z,-3.39
2022-12-15T03:38:28.931Z,-3.39
2022-12-15T03:40:55.392Z,-3.40
2022-12-15T03:43:21.795Z,-3.35
2022-12-15T03:45:48.277Z,-3.37
2022-12-15T03:48:14.768Z,-3.37
2022-12-15T03:50:41.300Z,-3.42
2022-12-15T03:53:08.024Z,-3.45
2022-12-15T03:55:35.227Z,-3.45
2022-12-15T03:58:02.659Z,-3.48
2022-12-15T04:00:29.614Z,-3.48
2022-12-15T04:02:56.212Z,-3.42
2022-12-15T04:05:30.774Z,-3.47
2022-12-15T04:07:58.609Z,-3.48
2022-12-15T04:10:31.909Z,-3.42
2022-12-15T04:13:05.785Z,-3.40
2022-12-15T04:15:32.986Z,-3.38
2022-12-15T04:18:01.354Z,-3.31
2022-12-15T04:20:27.746Z,-3.32
2022-12-15T04:22:54.235Z,-3.41
2022-12-15T04:25:40.889Z,-3.37
2022-12-15T04:28:26.971Z,-3.40
2022-12-15T04:31:14.954Z,-3.43
2022-12-15T04:34:03.642Z,-3.51
2022-12-15T04:36:49.364Z,-3.51
2022-12-15T04:39:34.422Z,-3.39
2022-12-15T04:42:19.949Z,-3.45
2022-12-15T04:45:06.510Z,-3.47
2022-12-15T04:47:51.438Z,-3.60
2022-12-15T04:50:36.585Z,-3.56
2022-12-15T04:53:29.510Z,-3.66
2022-12-15T04:56:18.496Z,-3.69
2022-12-15T04:59:03.921Z,-3.74
2022-12-15T05:01:49.120Z,-3.76
2022-12-15T05:04:34.307Z,-3.79
2022-12-15T05:07:19.313Z,-3.77
2022-12-15T05:10:06.263Z,-3.78
2022-12-15T05:12:54.582Z,-3.74
2022-12-15T05:15:39.733Z,-3.72
2022-12-15T05:18:24.737Z,-3.72
2022-12-15T05:21:09.518Z,-3.72
2022-12-15T05:23:54.731Z,-3.79
2022-12-15T05:26:39.767Z,-3.79
2022-12-15T05:29:24.796Z,-3.79
2022-12-15T05:31:54.907Z,-3.69
2022-12-15T05:34:26.600Z,-3.69
2022-12-15T05:36:53.986Z,-3.69
2022-12-15T05:39:20.815Z,-3.73
2022-12-15T05:41:47.616Z,-3.66
2022-12-15T05:44:14.262Z,-3.66
2022-12-15T05:46:41.100Z,-3.65
2022-12-15T05:49:08.825Z,-3.61
2022-12-15T05:51:38.360Z,-3.57
2022-12-15T05:54:04.926Z,-3.51
2022-12-15T05:56:31.507Z,-3.55
2022-12-15T05:58:58.250Z,-3.62
2022-12-15T06:01:28.067Z,-3.65
2022-12-15T06:03:54.606Z,-3.63
2022-12-15T06:06:21.108Z,-3.56
2022-12-15T06:08:47.565Z,-3.60
2022-12-15T06:11:18.394Z,-3.51
2022-12-15T06:13:45.213Z,-3.54
2022-12-15T06:16:20.327Z,-3.58
2022-12-15T06:18:50.781Z,-3.49
2022-12-15T06:21:23.674Z,-3.48
2022-12-15T06:23:50.482Z,-3.47
2022-12-15T06:26:22.729Z,-3.44
2022-12-15T06:28:50.163Z,-3.40
2022-12-15T06:31:18.208Z,-3.33
2022-12-15T06:33:44.820Z,-3.38
2022-12-15T06:36:13.525Z,-3.25
2022-12-15T06:38:43.366Z,-3.24
2022-12-15T06:41:12.469Z,-3.22
2022-12-15T06:43:39.074Z,-3.13
2022-12-15T06:46:05.606Z,-3.16
2022-12-15T06:48:32.109Z,-3.16
2022-12-15T06:51:09.647Z,-3.14
2022-12-15T06:53:48.571Z,-3.07
2022-12-15T06:56:33.972Z,-3.04
2022-12-15T06:59:01.936Z,-3.06
2022-12-15T07:01:29.353Z,-3.12
2022-12-15T07:03:57.090Z,-3.14
2022-12-15T07:06:23.779Z,-3.10
2022-12-15T07:08:52.664Z,-3.06
2022-12-15T07:11:20.922Z,-3.08
2022-12-15T07:13:54.529Z,-2.96
2022-12-15T07:16:22.447Z,-3.05
2022-12-15T07:18:49.175Z,-2.97
2022-12-15T07:21:15.580Z,-2.92
2022-12-15T07:23:58.221Z,-2.94
2022-12-15T07:26:25.576Z,-2.88
2022-12-15T07:28:54.112Z,-2.85
2022-12-15T07:31:21.125Z,-2.84
2022-12-15T07:33:48.470Z,-2.85
2022-12-15T07:36:15.103Z,-2.80
2022-12-15T07:38:41.578Z,-2.74
2022-12-15T07:41:08.466Z,-2.64
2022-12-15T07:43:36.154Z,-2.64
2022-12-15T07:46:04.604Z,-2.62
2022-12-15T07:48:31.907Z,-2.56
2022-12-15T07:51:07.347Z,-2.51
2022-12-15T07:53:35.998Z,-2.48
2022-12-15T07:56:08.530Z,-2.49
2022-12-15T07:58:36.574Z,-2.45
2022-12-15T08:01:05.796Z,-2.45
2022-12-15T08:03:33.257Z,-2.40
2022-12-15T08:06:07.180Z,-2.43
2022-12-15T08:08:35.359Z,-2.36
2022-12-15T08:11:06.482Z,-2.33
2022-12-15T08:16:23.340Z,-2.05
2022-12-15T08:18:49.798Z,-1.87
2022-12-15T08:21:16.259Z,-1.73
2022-12-15T08:23:42.716Z,-1.48
2022-12-15T08:26:12.618Z,-1.27
2022-12-15T08:28:40.071Z,-1.00
2022-12-15T08:31:16.427Z,-0.79
2022-12-15T08:33:43.006Z,-0.66
2022-12-15T08:36:11.415Z,-0.54
2022-12-15T08:38:39.885Z,-0.51
2022-12-15T08:41:08.553Z,-0.38
2022-12-15T08:43:35.378Z,-0.26
2022-12-15T08:46:02.026Z,-0.09
2022-12-15T08:48:28.511Z,0.06
2022-12-15T08:50:56.172Z,0.23
2022-12-15T08:53:31.398Z,0.32
2022-12-15T08:56:09.037Z,0.52
2022-12-15T08:58:35.912Z,0.72
2022-12-15T09:01:08.018Z,0.77
2022-12-15T09:03:36.152Z,0.77
2022-12-15T09:06:08.969Z,0.89
2022-12-15T09:08:36.029Z,0.88
2022-12-15T09:11:02.965Z,0.96
2022-12-15T09:13:36.930Z,0.81
2022-12-15T09:16:13.330Z,0.95
2022-12-15T09:18:42.321Z,1.07
2022-12-15T09:21:09.378Z,1.20
2022-12-15T09:23:36.588Z,1.29
2022-12-15T09:26:08.171Z,1.32
2022-12-15T09:28:35.504Z,1.39
2022-12-15T09:31:06.534Z,1.58
2022-12-15T09:33:33.535Z,1.79
2022-12-15T09:36:00.414Z,1.90
2022-12-15T09:38:26.788Z,2.11
2022-12-15T09:40:53.401Z,2.20
2022-12-15T09:43:44.551Z,2.27
2022-12-15T09:46:23.451Z,2.31
2022-12-15T09:48:51.256Z,2.32
2022-12-15T09:51:18.765Z,2.16
2022-12-15T09:53:54.804Z,2.05
2022-12-15T09:56:50.028Z,1.83
2022-12-15T09:59:20.696Z,1.86
2022-12-15T10:02:13.878Z,1.90
2022-12-15T10:04:53.655Z,1.77
2022-12-15T10:07:28.264Z,1.91
2022-12-15T10:09:54.678Z,2.01
2022-12-15T10:12:26.522Z,1.95
2022-12-15T10:15:22.276Z,1.96
2022-12-15T10:18:06.367Z,2.03
2022-12-15T10:20:33.343Z,2.04
2022-12-15T10:23:12.946Z,2.02
2022-12-15T10:25:40.109Z,2.13
2022-12-15T10:28:15.585Z,2.08
2022-12-15T10:30:56.371Z,1.97
2022-12-15T10:33:24.215Z,2.06
2022-12-15T10:35:55.479Z,2.03
2022-12-15T10:38:40.442Z,2.05
2022-12-15T10:41:12.172Z,2.03
2022-12-15T10:43:41.166Z,2.00
2022-12-15T10:46:22.325Z,2.15
2022-12-15T10:48:51.415Z,2.09
2022-12-15T10:51:31.676Z,2.23
2022-12-15T10:54:05.338Z,2.34
2022-12-15T10:56:34.197Z,2.36
2022-12-15T10:59:03.789Z,2.41
2022-12-15T11:01:33.098Z,2.53
2022-12-15T11:03:59.953Z,2.69
2022-12-15T11:06:29.511Z,2.74
2022-12-15T11:08:57.576Z,2.73
2022-12-15T11:11:54.357Z,2.81
2022-12-15T11:14:26.078Z,2.72
2022-12-15T11:16:57.360Z,2.88
2022-12-15T11:19:49.129Z,3.03
2022-12-15T11:22:23.987Z,3.05
2022-12-15T11:24:53.648Z,3.07
2022-12-15T11:27:46.370Z,2.87
2022-12-15T11:30:15.268Z,2.91
2022-12-15T11:32:44.710Z,2.95
2022-12-15T11:35:16.508Z,2.90
2022-12-15T11:37:56.903Z,2.92
2022-12-15T11:40:39.741Z,2.91
2022-12-15T11:43:43.793Z,2.93
2022-12-15T11:46:23.125Z,3.01
2022-12-15T11:49:09.916Z,3.06
2022-12-15T11:52:17.684Z,3.16
2022-12-15T11:54:50.721Z,3.34
2022-12-15T11:57:35.727Z,3.42
2022-12-15T12:00:21.414Z,3.26
2022-12-15T12:02:57.092Z,3.20
2022-12-15T12:05:45.482Z,3.27
2022-12-15T12:08:17.843Z,3.29
2022-12-15T12:10:57.904Z,3.31
2022-12-15T12:13:27.278Z,3.33
2022-12-15T12:16:04.670Z,3.35
2022-12-15T12:18:34.790Z,3.40
2022-12-15T12:21:19.845Z,3.48
2022-12-15T12:24:09.519Z,3.46
2022-12-15T12:26:42.062Z,3.49
2022-12-15T12:29:08.392Z,3.45
2022-12-15T12:31:50.721Z,3.50
2022-12-15T12:35:30.981Z,3.35
2022-12-15T12:37:58.125Z,3.48
2022-12-15T12:40:41.873Z,3.42
2022-12-15T12:43:14.011Z,3.49
2022-12-15T12:45:47.711Z,3.52
2022-12-15T12:48:37.825Z,3.37
2022-12-15T12:51:20.439Z,3.34
2022-12-15T12:53:46.984Z,3.44
2022-12-15T12:56:40.302Z,3.50
2022-12-15T12:59:28.641Z,3.53
2022-12-15T13:01:56.469Z,3.55
2022-12-15T13:04:28.901Z,3.56
2022-12-15T13:06:59.259Z,3.60
2022-12-15T13:09:40.727Z,3.61
2022-12-15T13:12:50.858Z,3.59
2022-12-15T13:15:35.755Z,3.61
2022-12-15T13:18:06.664Z,3.58
2022-12-15T13:20:35.511Z,3.50
2022-12-15T13:23:22.142Z,3.60
2022-12-15T13:25:57.871Z,3.66
2022-12-15T13:28:40.488Z,3.64
2022-12-15T13:31:16.734Z,3.65
2022-12-15T13:34:11.291Z,3.72
2022-12-15T13:36:37.836Z,3.66
2022-12-15T13:39:27.249Z,3.66
2022-12-15T13:44:55.198Z,3.64
2022-12-15T13:47:27.524Z,3.68
2022-12-15T13:50:06.859Z,3.68
2022-12-15T13:55:38.047Z,3.66
2022-12-15T13:58:15.937Z,3.64
2022-12-15T14:00:52.262Z,3.61
2022-12-15T14:03:18.803Z,3.49
2022-12-15T14:06:11.892Z,3.48
2022-12-15T14:08:38.286Z,3.39
2022-12-15T14:11:22.331Z,3.30
2022-12-15T14:13:54.365Z,3.29
2022-12-15T14:16:22.330Z,3.28
2022-12-15T14:19:12.928Z,3.17
2022-12-15T14:21:39.540Z,3.23
2022-12-15T14:24:39.524Z,3.23
2022-12-15T14:27:06.946Z,3.18
2022-12-15T14:29:33.419Z,3.03
2022-12-15T14:32:00.565Z,2.95
2022-12-15T14:34:32.459Z,2.91
2022-12-15T14:37:02.428Z,2.89
2022-12-15T14:39:43.160Z,2.71
2022-12-15T14:42:16.548Z,2.54
2022-12-15T14:44:49.927Z,2.64
2022-12-15T14:47:27.317Z,2.48
2022-12-15T14:49:55.409Z,2.53
2022-12-15T14:52:39.369Z,2.48
2022-12-15T14:55:21.019Z,2.55
2022-12-15T14:57:48.230Z,2.35
2022-12-15T15:00:24.114Z,2.39
2022-12-15T15:02:50.612Z,2.31
2022-12-15T15:03:10.416Z,3.70
2022-12-15T15:05:27.755Z,2.08
2022-12-15T15:07:56.174Z,2.02
2022-12-15T15:10:25.097Z,1.95
2022-12-15T15:12:52.558Z,1.89
2022-12-15T15:15:21.269Z,1.87
2022-12-15T15:17:47.613Z,1.90
2022-12-15T15:20:29.914Z,1.62
2022-12-15T15:23:08.582Z,1.52
2022-12-15T15:25:41.692Z,1.46
2022-12-15T15:28:14.404Z,1.40
2022-12-15T15:30:51.044Z,1.37
2022-12-15T15:33:23.066Z,1.28
2022-12-15T15:35:52.968Z,1.30
2022-12-15T15:38:26.965Z,1.27
2022-12-15T15:40:59.013Z,1.18
2022-12-15T15:43:27.252Z,1.22
2022-12-15T15:46:05.605Z,1.15
2022-12-15T15:48:35.403Z,1.18
2022-12-15T15:51:02.776Z,1.22
2022-12-15T15:53:32.355Z,1.14
2022-12-15T15:55:59.213Z,1.16
2022-12-15T15:58:25.849Z,1.09
2022-12-15T16:00:53.425Z,1.02
2022-12-15T16:03:20.109Z,0.91
2022-12-15T16:05:46.765Z,0.86
2022-12-15T16:08:16.348Z,0.82
2022-12-15T16:10:48.040Z,0.78
2022-12-15T16:13:25.563Z,0.85
2022-12-15T16:15:52.940Z,0.80
2022-12-15T16:18:20.026Z,0.76
2022-12-15T16:20:48.965Z,0.72
2022-12-15T16:23:17.766Z,0.72
2022-12-15T16:25:50.741Z,0.67
2022-12-15T16:28:22.543Z,0.64
2022-12-15T16:30:49.465Z,0.55
2022-12-15T16:33:16.534Z,0.49
2022-12-15T16:35:43.990Z,0.43
2022-12-15T16:38:30.815Z,0.32
2022-12-15T16:41:05.139Z,0.27
2022-12-15T16:43:37.259Z,0.20
2022-12-15T16:46:06.122Z,0.11
2022-12-15T16:48:33.151Z,-0.02
2022-12-15T16:51:00.183Z,-0.06
2022-12-15T16:53:29.979Z,-0.08
2022-12-15T16:55:58.119Z,-0.04
2022-12-15T16:58:26.011Z,0.00
2022-12-15T17:00:53.814Z,-0.05
2022-12-15T17:03:26.084Z,0.06
2022-12-15T17:05:54.920Z,0.07
2022-12-15T17:08:24.885Z,0.02
2022-12-15T17:10:51.625Z,0.02
2022-12-15T17:13:41.959Z,0.06
2022-12-15T17:16:14.176Z,0.05
2022-12-15T17:18:42.605Z,0.04
2022-12-15T17:21:13.929Z,-0.04
2022-12-15T17:23:41.089Z,-0.14
2022-12-15T17:26:25.673Z,-0.18
2022-12-15T17:28:55.644Z,-0.10
2022-12-15T17:31:24.010Z,-0.14
2022-12-15T17:33:50.696Z,-0.18
2022-12-15T17:36:20.763Z,-0.24
2022-12-15T17:38:49.630Z,-0.18
2022-12-15T17:41:42.402Z,-0.12
2022-12-15T17:44:31.838Z,0.14
2022-12-15T17:46:49.526Z,0.05
2022-12-15T17:49:16.248Z,-0.01
2022-12-15T17:51:43.973Z,0.01
2022-12-15T17:54:15.166Z,-0.07
2022-12-15T17:56:42.991Z,-0.07
2022-12-15T17:59:14.286Z,-0.05
2022-12-15T18:01:42.869Z,-0.09
2022-12-15T18:04:10.389Z,-0.02
2022-12-15T18:06:41.032Z,-0.01
2022-12-15T18:09:15.852Z,0.03
2022-12-15T18:11:45.085Z,0.04
2022-12-15T18:14:17.833Z,0.07
2022-12-15T18:16:47.880Z,0.08
2022-12-15T18:19:14.527Z,-0.02
2022-12-15T18:21:41.116Z,-0.08
2022-12-15T18:24:15.437Z,-0.18
2022-12-15T18:26:42.150Z,-0.22
2022-12-15T18:29:14.185Z,-0.26
2022-12-15T18:31:41.617Z,-0.29
2022-12-15T18:34:17.357Z,-0.35
2022-12-15T18:36:44.096Z,-0.39
2022-12-15T18:39:17.372Z,-0.09
2022-12-15T18:41:43.925Z,0.02
2022-12-15T18:44:24.232Z,0.03
2022-12-15T18:46:51.000Z,-0.20
2022-12-15T18:49:19.319Z,-0.29
2022-12-15T18:51:47.151Z,-0.35
2022-12-15T18:54:22.017Z,-0.41
2022-12-15T18:56:49.055Z,-0.60
2022-12-15T18:59:17.063Z,-0.74
2022-12-15T19:01:45.496Z,-0.66
2022-12-15T19:04:12.561Z,-0.66
2022-12-15T19:06:40.411Z,-0.64
2022-12-15T19:09:13.826Z,-0.68
2022-12-15T19:11:40.448Z,-0.73
2022-12-15T19:14:33.202Z,-0.68
2022-12-15T19:17:18.446Z,-0.64
2022-12-15T19:20:03.593Z,-0.55
2022-12-15T19:22:31.170Z,-0.24
2022-12-15T19:24:58.698Z,-0.12
2022-12-15T19:27:26.506Z,-0.18
2022-12-15T19:29:54.294Z,-0.21
2022-12-15T19:32:21.068Z,-0.28
2022-12-15T19:34:47.519Z,-0.36
2022-12-15T19:37:21.785Z,-0.43
2022-12-15T19:39:48.527Z,-0.52
2022-12-15T19:42:19.845Z,-0.43
2022-12-15T19:44:46.428Z,-0.38
2022-12-15T19:47:13.649Z,-0.33
2022-12-15T19:49:41.309Z,-0.37
2022-12-15T19:52:15.252Z,-0.45
2022-12-15T19:54:43.282Z,-0.56
2022-12-15T19:57:15.387Z,-0.63
2022-12-15T19:59:41.829Z,-0.65
2022-12-15T20:02:21.559Z,-0.70
2022-12-15T20:04:48.651Z,-0.74
2022-12-15T20:07:18.759Z,-0.55
2022-12-15T20:09:46.487Z,-0.46
2022-12-15T20:12:17.879Z,-0.52
2022-12-15T20:14:45.088Z,-0.45
2022-12-15T20:17:11.539Z,-0.45
2022-12-15T20:19:40.808Z,-0.32
2022-12-15T20:22:13.404Z,-0.07
2022-12-15T20:24:40.203Z,0.56
2022-12-15T20:27:12.825Z,0.44
2022-12-15T20:29:39.516Z,0.36
2022-12-15T20:32:13.550Z,0.20
2022-12-15T20:34:40.259Z,0.19
2022-12-15T20:37:20.591Z,0.80
2022-12-15T20:39:48.692Z,1.50
2022-12-15T20:42:19.591Z,1.65
2022-12-15T20:44:46.012Z,1.59
2022-12-15T20:47:21.953Z,1.54
2022-12-15T20:49:51.972Z,1.76
2022-12-15T20:52:23.659Z,1.82
2022-12-15T20:54:51.214Z,1.94
2022-12-15T20:57:17.761Z,1.85
2022-12-15T20:59:44.718Z,1.73
2022-12-15T21:02:19.484Z,1.63
2022-12-15T21:04:46.062Z,1.52
2022-12-15T21:07:12.662Z,1.50
2022-12-15T21:09:39.303Z,1.49
2022-12-15T21:12:26.425Z,1.58
2022-12-15T21:14:53.711Z,2.09
2022-12-15T21:17:25.934Z,2.71
2022-12-15T21:19:52.703Z,2.92
2022-12-15T21:22:26.354Z,2.62
2022-12-15T21:24:58.229Z,2.01
2022-12-15T21:27:25.089Z,1.57
2022-12-15T21:29:52.952Z,1.62
2022-12-15T21:32:20.125Z,1.31
2022-12-15T21:34:46.638Z,1.10
2022-12-15T21:37:43.297Z,0.84
2022-12-15T21:40:16.920Z,0.79
2022-12-15T21:42:43.336Z,0.46
2022-12-15T21:45:17.490Z,0.21
2022-12-15T21:48:02.500Z,0.05
2022-12-15T21:50:29.052Z,0.08
2022-12-15T21:52:55.630Z,-0.01
2022-12-15T21:55:24.558Z,0.04
2022-12-15T21:57:51.662Z,-0.14
2022-12-15T22:00:19.316Z,-0.12
2022-12-15T22:02:47.684Z,-0.29
2022-12-15T22:05:25.042Z,-0.31
2022-12-15T22:07:51.677Z,-0.35
2022-12-15T22:10:18.362Z,-0.47
2022-12-15T22:12:48.657Z,-0.63
2022-12-15T22:15:18.308Z,-0.76
2022-12-15T22:17:44.991Z,-0.72
2022-12-15T22:20:16.392Z,-0.79
2022-12-15T22:22:42.792Z,-0.84
2022-12-15T22:25:15.988Z,-1.03
2022-12-15T22:27:42.672Z,-0.95
2022-12-15T22:30:21.653Z,-1.06
2022-12-15T22:32:48.223Z,-1.07
2022-12-15T22:35:20.144Z,-0.94
2022-12-15T22:37:47.246Z,-0.75
2022-12-15T22:40:14.396Z,-0.69
2022-12-15T22:42:46.560Z,-0.71
2022-12-15T22:45:16.338Z,-0.77
2022-12-15T22:47:43.409Z,-0.80
2022-12-15T22:50:21.046Z,-0.86
2022-12-15T22:52:47.876Z,-0.97
2022-12-15T22:55:18.998Z,-0.93
2022-12-15T22:57:56.170Z,-0.96
2022-12-15T23:00:22.620Z,-1.21
2022-12-15T23:02:49.098Z,-1.22
2022-12-15T23:05:17.615Z,-1.33
2022-12-15T23:07:44.516Z,-1.36
2022-12-15T23:10:32.164Z,-1.36
2022-12-15T23:13:01.158Z,-1.39
2022-12-15T23:15:46.987Z,-1.48
2022-12-15T23:18:14.323Z,-1.53
2022-12-15T23:20:41.346Z,-1.61
2022-12-15T23:23:09.498Z,-1.61
2022-12-15T23:25:36.028Z,-1.68
2022-12-15T23:28:03.103Z,-1.77
2022-12-15T23:30:29.697Z,-1.76
2022-12-15T23:32:56.099Z,-1.62
2022-12-15T23:35:22.585Z,-1.54
2022-12-15T23:37:49.028Z,-1.41
2022-12-15T23:40:21.172Z,-1.32
2022-12-15T23:42:48.530Z,-1.14
2022-12-15T23:45:15.273Z,-1.05
2022-12-15T23:47:41.715Z,-1.00
2022-12-15T23:50:08.678Z,-1.01
2022-12-15T23:52:35.231Z,-0.92
2022-12-15T23:55:02.051Z,-0.84
2022-12-15T23:57:28.619Z,-0.76
2022-12-15T23:59:55.056Z,-0.69
